Chautauqua, New York
Current Conditions -  °F | °C
As of 8:35 PM on Tuesday 21 Oct 2014 (Local Time) from KJHW Reporting Station
Overcast Overcast  
Wind Chill: 41°   Ceiling: 200
Heat Index: 46°   Visibility: 0.25mi
Dew Point: 45°   Wind: 13mph
Humidity: 93%   Direction: 360°N
Pressure: 29.99"   Gusts: NA
Location:  42.21°N, 79.47°W
Report Text: KJHW 220035Z AUTO 36011KT 1/4SM OVC002 08/07 A2999 RMK AO1
Loading
Personal Weather Stations






























Interactive Weather Map
Tropical Storm Tracking
New forecast layout! Learn more

10-Day Weather Forecast

Advertisements
Track Severe Weather on mobile